PDT,Max TemperatureF,Mean TemperatureF,Min TemperatureF,Max Dew PointF,MeanDew PointF,Min DewpointF,Max Humidity, Mean Humidity, Min Humidity, Max Sea Level PressureIn, Mean Sea Level PressureIn, Min Sea Level PressureIn, Max VisibilityMiles, Mean VisibilityMiles, Min VisibilityMiles, Max Wind SpeedMPH, Mean Wind SpeedMPH, Max Gust SpeedMPH,PrecipitationIn, CloudCover, Events, WindDirDegrees
2013-8-1,94,79,63,48,41,34,48,30,12,30.02,29.94,29.87,10,10,10,17,9,23,0.00,0,,322
2013-8-2,94,73,51,50,44,30,77,44,11,29.96,29.89,29.83,10,10,10,12,4,,0.00,0,,322
2013-8-3,98,78,57,53,47,33,80,46,11,29.93,29.88,29.82,10,10,8,12,4,,0.00,1,,322
2013-8-4,98,80,62,55,49,38,67,40,13,29.95,29.90,29.84,10,10,8,14,7,17,0.00,1,,320
2013-8-5,96,80,63,56,51,44,67,42,17,29.98,29.91,29.84,10,10,8,13,8,,0.00,0,,311
2013-8-6,96,79,61,55,51,47,72,46,19,29.97,29.92,29.87,10,10,9,16,7,29,0.00,1,,316
2013-8-7,89,75,60,55,53,47,78,51,24,30.07,30.00,29.94,10,10,10,10,7,15,0.00,0,,314
2013-8-8,90,75,60,56,52,45,78,51,24,30.00,29.93,29.84,10,10,10,13,6,17,0.00,0,,331
2013-8-9,93,77,60,56,51,36,78,46,14,29.93,29.89,29.84,10,10,9,13,9,24,0.00,0,,315
2013-8-10,93,76,59,58,52,43,72,47,21,30.01,29.95,29.91,10,9,7,13,8,28,0.00,0,,316
2013-8-11,95,79,62,57,53,47,73,47,20,29.99,29.93,29.86,10,10,10,16,7,21,0.00,1,,324
2013-8-12,97,79,61,55,51,46,69,45,20,29.96,29.91,29.85,10,10,10,14,6,17,0.00,1,,323
2013-8-13,99,79,59,55,50,44,72,45,17,29.96,29.90,29.83,10,10,9,15,5,20,0.00,2,,322
2013-8-14,102,80,58,53,49,39,78,46,13,29.94,29.88,29.81,10,10,7,14,5,17,0.00,2,,318
2013-8-15,101,81,60,59,51,43,78,46,14,29.93,29.88,29.82,10,10,10,16,8,23,0.00,2,,313
2013-8-16,101,84,66,60,56,50,73,46,19,29.95,29.90,29.84,10,10,10,16,8,22,0.00,2,,322
2013-8-17,101,83,65,59,51,44,73,44,15,29.94,29.86,29.77,10,10,10,15,7,20,0.00,2,,320
2013-8-18,99,83,67,65,57,52,73,49,24,29.88,29.81,29.73,10,10,9,9,3,,0.00,2,,321
2013-8-19,106,87,68,64,59,52,84,51,17,29.86,29.80,29.72,10,8,0,14,5,21,0.00,0,Thunderstorm,320
2013-8-20,101,85,69,63,57,46,66,45,24,29.84,29.78,29.72,10,10,10,9,3,13,0.00,0,,10
2013-8-21,99,83,67,56,48,31,58,38,17,29.89,29.83,29.76,10,10,10,10,5,24,0.00,0,,303
2013-8-22,99,82,64,57,53,47,73,47,20,29.91,29.84,29.75,10,10,10,16,7,26,0.00,0,,333
2013-8-23,94,77,59,55,51,47,78,50,21,29.88,29.82,29.73,10,10,10,15,7,20,0.00,0,,316
2013-8-24,96,78,59,55,51,44,84,51,17,29.86,29.81,29.74,10,10,9,17,7,22,0.00,0,,320
2013-8-25,95,78,60,57,55,48,84,53,22,29.94,29.87,29.81,10,10,10,15,6,17,0.00,0,,314
2013-8-26,94,80,65,58,56,51,73,49,24,29.98,29.89,29.81,10,10,10,15,9,20,0.00,0,,321
2013-8-27,97,81,64,57,54,51,68,46,24,29.87,29.81,29.73,10,10,8,14,7,18,0.00,2,,318
2013-8-28,97,83,68,57,54,51,57,41,24,29.89,29.83,29.79,10,10,9,14,7,16,0.00,0,,321
2013-8-29,96,82,68,59,57,54,73,49,24,30.00,29.94,29.89,10,10,5,16,9,22,0.00,0,,318
2013-8-30,98,81,64,59,56,51,73,47,21,30.01,29.94,29.86,10,9,3,14,6,18,0.00,0,,316
2013-8-31,98,84,69,60,56,52,68,45,22,29.94,29.88,29.81,10,10,8,10,3,14,0.00,0,,319